sensor_id;sensor_type;location;lat;lon;timestamp;temperature;humidity
11569;DHT22;5840;46.894;15.542;2023-12-14T00:00:53;4.50;99.90
11569;DHT22;5840;46.894;15.542;2023-12-14T00:03:20;4.40;99.90
11569;DHT22;5840;46.894;15.542;2023-12-14T00:05:48;4.40;99.90
11569;DHT22;5840;46.894;15.542;2023-12-14T00:08:15;4.40;99.90
11569;DHT22;5840;46.894;15.542;2023-12-14T00:10:42;4.40;99.90
11569;DHT22;5840;46.894;15.542;2023-12-14T00:13:09;4.40;99.90
11569;DHT22;5840;46.894;15.542;2023-12-14T00:15:36;4.40;99.90
11569;DHT22;5840;46.894;15.542;2023-12-14T00:18:03;4.40;99.90
11569;DHT22;5840;46.894;15.542;2023-12-14T00:20:31;4.40;99.90
11569;DHT22;5840;46.894;15.542;2023-12-14T00:22:59;4.40;99.90
11569;DHT22;5840;46.894;15.542;2023-12-14T00:25:26;4.30;99.90
11569;DHT22;5840;46.894;15.542;2023-12-14T00:27:53;4.30;99.90
11569;DHT22;5840;46.894;15.542;2023-12-14T00:30:20;4.30;99.90
11569;DHT22;5840;46.894;15.542;2023-12-14T00:32:47;4.30;99.90
11569;DHT22;5840;46.894;15.542;2023-12-14T00:35:14;4.30;99.90
11569;DHT22;5840;46.894;15.542;2023-12-14T00:37:41;4.30;99.90
11569;DHT22;5840;46.894;15.542;2023-12-14T00:40:10;4.30;99.90
11569;DHT22;5840;46.894;15.542;2023-12-14T00:42:37;4.30;99.90
11569;DHT22;5840;46.894;15.542;2023-12-14T00:45:05;4.30;99.90
11569;DHT22;5840;46.894;15.542;2023-12-14T00:47:32;4.30;99.90
11569;DHT22;5840;46.894;15.542;2023-12-14T00:49:59;4.30;99.90
11569;DHT22;5840;46.894;15.542;2023-12-14T00:52:26;4.20;99.90
11569;DHT22;5840;46.894;15.542;2023-12-14T00:54:53;4.20;99.90
11569;DHT22;5840;46.894;15.542;2023-12-14T00:57:21;4.20;99.90
11569;DHT22;5840;46.894;15.542;2023-12-14T00:59:48;4.20;99.90
11569;DHT22;5840;46.894;15.542;2023-12-14T01:02:15;4.20;99.90
11569;DHT22;5840;46.894;15.542;2023-12-14T01:04:42;4.20;99.90
11569;DHT22;5840;46.894;15.542;2023-12-14T01:07:08;4.20;99.90
11569;DHT22;5840;46.894;15.542;2023-12-14T01:09:35;4.20;99.90
11569;DHT22;5840;46.894;15.542;2023-12-14T01:12:02;4.20;99.90
11569;DHT22;5840;46.894;15.542;2023-12-14T01:14:30;4.20;99.90
11569;DHT22;5840;46.894;15.542;2023-12-14T01:16:57;4.20;99.90
11569;DHT22;5840;46.894;15.542;2023-12-14T01:19:24;4.10;99.90
11569;DHT22;5840;46.894;15.542;2023-12-14T01:21:51;4.10;99.90
11569;DHT22;5840;46.894;15.542;2023-12-14T01:24:18;4.10;99.90
11569;DHT22;5840;46.894;15.542;2023-12-14T01:26:45;4.10;99.90
11569;DHT22;5840;46.894;15.542;2023-12-14T01:29:12;4.00;99.90
11569;DHT22;5840;46.894;15.542;2023-12-14T01:31:40;4.00;99.90
11569;DHT22;5840;46.894;15.542;2023-12-14T01:34:07;4.00;99.90
11569;DHT22;5840;46.894;15.542;2023-12-14T01:36:37;4.00;99.90
11569;DHT22;5840;46.894;15.542;2023-12-14T01:39:04;4.00;99.90
11569;DHT22;5840;46.894;15.542;2023-12-14T01:41:31;4.00;99.90
11569;DHT22;5840;46.894;15.542;2023-12-14T01:43:58;4.00;99.90
11569;DHT22;5840;46.894;15.542;2023-12-14T01:46:25;4.00;99.90
11569;DHT22;5840;46.894;15.542;2023-12-14T01:48:53;4.10;99.90
11569;DHT22;5840;46.894;15.542;2023-12-14T01:51:20;4.00;99.90
11569;DHT22;5840;46.894;15.542;2023-12-14T01:53:47;4.00;99.90
11569;DHT22;5840;46.894;15.542;2023-12-14T01:56:14;4.00;99.90
11569;DHT22;5840;46.894;15.542;2023-12-14T01:58:41;4.00;99.90
11569;DHT22;5840;46.894;15.542;2023-12-14T02:01:16;4.00;99.90
11569;DHT22;5840;46.894;15.542;2023-12-14T02:03:45;4.00;99.90
11569;DHT22;5840;46.894;15.542;2023-12-14T02:06:14;4.00;99.90
11569;DHT22;5840;46.894;15.542;2023-12-14T02:08:41;4.00;99.90
11569;DHT22;5840;46.894;15.542;2023-12-14T02:11:08;4.10;99.90
11569;DHT22;5840;46.894;15.542;2023-12-14T02:13:35;4.10;99.90
11569;DHT22;5840;46.894;15.542;2023-12-14T02:16:02;4.10;99.90
11569;DHT22;5840;46.894;15.542;2023-12-14T02:18:29;4.00;99.90
11569;DHT22;5840;46.894;15.542;2023-12-14T02:20:56;4.10;99.90
11569;DHT22;5840;46.894;15.542;2023-12-14T02:23:25;4.10;99.90
11569;DHT22;5840;46.894;15.542;2023-12-14T02:25:51;4.10;99.90
11569;DHT22;5840;46.894;15.542;2023-12-14T02:28:18;4.10;99.90
11569;DHT22;5840;46.894;15.542;2023-12-14T02:30:45;4.00;99.90
11569;DHT22;5840;46.894;15.542;2023-12-14T02:33:12;4.10;99.90
11569;DHT22;5840;46.894;15.542;2023-12-14T02:35:39;4.10;99.90
11569;DHT22;5840;46.894;15.542;2023-12-14T02:38:06;4.10;99.90
11569;DHT22;5840;46.894;15.542;2023-12-14T02:40:35;4.10;99.90
11569;DHT22;5840;46.894;15.542;2023-12-14T02:43:02;4.20;99.90
11569;DHT22;5840;46.894;15.542;2023-12-14T02:45:28;4.10;99.90
11569;DHT22;5840;46.894;15.542;2023-12-14T02:47:55;4.10;99.90
11569;DHT22;5840;46.894;15.542;2023-12-14T02:50:22;4.10;99.90
11569;DHT22;5840;46.894;15.542;2023-12-14T02:52:49;4.00;99.90
11569;DHT22;5840;46.894;15.542;2023-12-14T02:55:16;4.00;99.90
11569;DHT22;5840;46.894;15.542;2023-12-14T02:57:45;4.00;99.90
11569;DHT22;5840;46.894;15.542;2023-12-14T03:00:12;4.00;99.90
11569;DHT22;5840;46.894;15.542;2023-12-14T03:02:39;4.00;99.90
11569;DHT22;5840;46.894;15.542;2023-12-14T03:05:07;3.90;99.90
11569;DHT22;5840;46.894;15.542;2023-12-14T03:07:34;3.90;99.90
11569;DHT22;5840;46.894;15.542;2023-12-14T03:10:02;3.90;99.90
11569;DHT22;5840;46.894;15.542;2023-12-14T03:12:29;3.90;99.90
11569;DHT22;5840;46.894;15.542;2023-12-14T03:14:57;3.90;99.90
11569;DHT22;5840;46.894;15.542;2023-12-14T03:17:24;3.90;99.90
11569;DHT22;5840;46.894;15.542;2023-12-14T03:19:51;3.90;99.90
11569;DHT22;5840;46.894;15.542;2023-12-14T03:22:18;3.90;99.90
11569;DHT22;5840;46.894;15.542;2023-12-14T03:24:45;3.90;99.90
11569;DHT22;5840;46.894;15.542;2023-12-14T03:27:12;3.90;99.90
11569;DHT22;5840;46.894;15.542;2023-12-14T03:29:40;3.90;99.90
11569;DHT22;5840;46.894;15.542;2023-12-14T03:32:08;3.90;99.90
11569;DHT22;5840;46.894;15.542;2023-12-14T03:34:35;3.80;99.90
11569;DHT22;5840;46.894;15.542;2023-12-14T03:37:02;3.80;99.90
11569;DHT22;5840;46.894;15.542;2023-12-14T03:39:29;3.80;99.90
11569;DHT22;5840;46.894;15.542;2023-12-14T03:41:56;3.90;99.90
11569;DHT22;5840;46.894;15.542;2023-12-14T03:44:22;3.90;99.90
11569;DHT22;5840;46.894;15.542;2023-12-14T03:46:50;3.90;99.90
11569;DHT22;5840;46.894;15.542;2023-12-14T03:49:18;3.90;99.90
11569;DHT22;5840;46.894;15.542;2023-12-14T03:51:45;3.90;99.90
11569;DHT22;5840;46.894;15.542;2023-12-14T03:54:12;4.00;99.90
11569;DHT22;5840;46.894;15.542;2023-12-14T03:56:39;4.00;99.90
11569;DHT22;5840;46.894;15.542;2023-12-14T03:59:06;4.00;99.90
11569;DHT22;5840;46.894;15.542;2023-12-14T04:01:33;4.00;99.90
11569;DHT22;5840;46.894;15.542;2023-12-14T04:04:02;4.00;99.90
11569;DHT22;5840;46.894;15.542;2023-12-14T04:06:30;4.00;99.90
11569;DHT22;5840;46.894;15.542;2023-12-14T04:08:57;4.00;99.90
11569;DHT22;5840;46.894;15.542;2023-12-14T04:11:24;4.00;99.90
11569;DHT22;5840;46.894;15.542;2023-12-14T04:13:51;4.00;99.90
11569;DHT22;5840;46.894;15.542;2023-12-14T04:16:19;4.00;99.90
11569;DHT22;5840;46.894;15.542;2023-12-14T04:18:46;4.00;99.90
11569;DHT22;5840;46.894;15.542;2023-12-14T04:21:13;4.00;99.90
11569;DHT22;5840;46.894;15.542;2023-12-14T04:23:41;4.00;99.90
11569;DHT22;5840;46.894;15.542;2023-12-14T04:26:08;4.00;99.90
11569;DHT22;5840;46.894;15.542;2023-12-14T04:28:36;4.00;99.90
11569;DHT22;5840;46.894;15.542;2023-12-14T04:31:03;4.00;99.90
11569;DHT22;5840;46.894;15.542;2023-12-14T04:33:30;4.00;99.90
11569;DHT22;5840;46.894;15.542;2023-12-14T04:35:57;3.90;99.90
11569;DHT22;5840;46.894;15.542;2023-12-14T04:38:24;3.90;99.90
11569;DHT22;5840;46.894;15.542;2023-12-14T04:40:52;3.90;99.90
11569;DHT22;5840;46.894;15.542;2023-12-14T04:43:19;3.90;99.90
11569;DHT22;5840;46.894;15.542;2023-12-14T04:45:46;3.90;99.90
11569;DHT22;5840;46.894;15.542;2023-12-14T04:48:13;3.90;99.90
11569;DHT22;5840;46.894;15.542;2023-12-14T04:50:40;3.90;99.90
11569;DHT22;5840;46.894;15.542;2023-12-14T04:53:07;4.00;99.90
11569;DHT22;5840;46.894;15.542;2023-12-14T04:55:34;4.00;99.90
11569;DHT22;5840;46.894;15.542;2023-12-14T04:58:02;4.00;99.90
11569;DHT22;5840;46.894;15.542;2023-12-14T05:00:29;4.00;99.90
11569;DHT22;5840;46.894;15.542;2023-12-14T05:02:56;4.00;99.90
11569;DHT22;5840;46.894;15.542;2023-12-14T05:05:23;4.00;99.90
11569;DHT22;5840;46.894;15.542;2023-12-14T05:07:50;4.00;99.90
11569;DHT22;5840;46.894;15.542;2023-12-14T05:10:17;4.00;99.90
11569;DHT22;5840;46.894;15.542;2023-12-14T05:12:44;4.00;99.90
11569;DHT22;5840;46.894;15.542;2023-12-14T05:15:12;4.00;99.90
11569;DHT22;5840;46.894;15.542;2023-12-14T05:17:39;4.00;99.90
11569;DHT22;5840;46.894;15.542;2023-12-14T05:20:08;4.00;99.90
11569;DHT22;5840;46.894;15.542;2023-12-14T05:22:35;3.90;99.90
11569;DHT22;5840;46.894;15.542;2023-12-14T05:25:03;3.90;99.90
11569;DHT22;5840;46.894;15.542;2023-12-14T05:27:30;3.90;99.90
11569;DHT22;5840;46.894;15.542;2023-12-14T05:29:56;3.90;99.90
11569;DHT22;5840;46.894;15.542;2023-12-14T05:32:25;3.90;99.90
11569;DHT22;5840;46.894;15.542;2023-12-14T05:34:52;3.90;99.90
11569;DHT22;5840;46.894;15.542;2023-12-14T05:37:19;3.90;99.90
11569;DHT22;5840;46.894;15.542;2023-12-14T05:39:46;3.90;99.90
11569;DHT22;5840;46.894;15.542;2023-12-14T05:42:16;4.00;99.90
11569;DHT22;5840;46.894;15.542;2023-12-14T05:44:42;3.90;99.90
11569;DHT22;5840;46.894;15.542;2023-12-14T05:47:10;3.90;99.90
11569;DHT22;5840;46.894;15.542;2023-12-14T05:49:41;3.90;99.90
11569;DHT22;5840;46.894;15.542;2023-12-14T05:52:08;3.90;99.90
11569;DHT22;5840;46.894;15.542;2023-12-14T05:54:36;3.90;99.90
11569;DHT22;5840;46.894;15.542;2023-12-14T05:57:03;3.90;99.90
11569;DHT22;5840;46.894;15.542;2023-12-14T05:59:30;3.90;99.90
11569;DHT22;5840;46.894;15.542;2023-12-14T06:01:57;3.80;99.90
11569;DHT22;5840;46.894;15.542;2023-12-14T06:04:24;3.80;99.90
11569;DHT22;5840;46.894;15.542;2023-12-14T06:06:53;3.90;99.90
11569;DHT22;5840;46.894;15.542;2023-12-14T06:09:20;3.90;99.90
11569;DHT22;5840;46.894;15.542;2023-12-14T06:11:50;3.90;99.90
11569;DHT22;5840;46.894;15.542;2023-12-14T06:14:17;3.90;99.90
11569;DHT22;5840;46.894;15.542;2023-12-14T06:16:44;3.80;99.90
11569;DHT22;5840;46.894;15.542;2023-12-14T06:19:11;3.90;99.90
11569;DHT22;5840;46.894;15.542;2023-12-14T06:21:38;3.90;99.90
11569;DHT22;5840;46.894;15.542;2023-12-14T06:24:07;3.90;99.90
11569;DHT22;5840;46.894;15.542;2023-12-14T06:26:34;3.90;99.90
11569;DHT22;5840;46.894;15.542;2023-12-14T06:29:01;3.90;99.90
11569;DHT22;5840;46.894;15.542;2023-12-14T06:31:28;3.90;99.90
11569;DHT22;5840;46.894;15.542;2023-12-14T06:33:54;3.90;99.90
11569;DHT22;5840;46.894;15.542;2023-12-14T06:36:23;3.90;99.90
11569;DHT22;5840;46.894;15.542;2023-12-14T06:38:52;3.90;99.90
11569;DHT22;5840;46.894;15.542;2023-12-14T06:41:21;3.90;99.90
11569;DHT22;5840;46.894;15.542;2023-12-14T06:43:49;3.90;99.90
11569;DHT22;5840;46.894;15.542;2023-12-14T06:46:16;4.00;99.90
11569;DHT22;5840;46.894;15.542;2023-12-14T06:48:43;4.00;99.90
11569;DHT22;5840;46.894;15.542;2023-12-14T06:51:10;4.00;99.90
11569;DHT22;5840;46.894;15.542;2023-12-14T06:53:39;4.10;99.90
11569;DHT22;5840;46.894;15.542;2023-12-14T06:56:07;4.10;99.90
11569;DHT22;5840;46.894;15.542;2023-12-14T06:58:38;4.10;99.90
11569;DHT22;5840;46.894;15.542;2023-12-14T07:01:05;4.10;99.90
11569;DHT22;5840;46.894;15.542;2023-12-14T07:03:31;4.10;99.90
11569;DHT22;5840;46.894;15.542;2023-12-14T07:05:58;4.20;99.90
11569;DHT22;5840;46.894;15.542;2023-12-14T07:08:25;4.20;99.90
11569;DHT22;5840;46.894;15.542;2023-12-14T07:10:52;4.20;99.90
11569;DHT22;5840;46.894;15.542;2023-12-14T07:13:19;4.30;99.90
11569;DHT22;5840;46.894;15.542;2023-12-14T07:15:48;4.30;99.90
11569;DHT22;5840;46.894;15.542;2023-12-14T07:18:15;4.30;99.90
11569;DHT22;5840;46.894;15.542;2023-12-14T07:20:42;4.40;99.90
11569;DHT22;5840;46.894;15.542;2023-12-14T07:23:09;4.40;99.90
11569;DHT22;5840;46.894;15.542;2023-12-14T07:25:36;4.50;99.90
11569;DHT22;5840;46.894;15.542;2023-12-14T07:28:03;4.50;99.90
11569;DHT22;5840;46.894;15.542;2023-12-14T07:30:30;4.60;99.90
11569;DHT22;5840;46.894;15.542;2023-12-14T07:32:58;4.50;99.90
11569;DHT22;5840;46.894;15.542;2023-12-14T07:35:25;4.50;99.90
11569;DHT22;5840;46.894;15.542;2023-12-14T07:37:52;4.50;99.90
11569;DHT22;5840;46.894;15.542;2023-12-14T07:40:19;4.50;99.90
11569;DHT22;5840;46.894;15.542;2023-12-14T07:42:46;4.50;99.90
11569;DHT22;5840;46.894;15.542;2023-12-14T07:45:14;4.50;99.90
11569;DHT22;5840;46.894;15.542;2023-12-14T07:47:41;4.50;99.90
11569;DHT22;5840;46.894;15.542;2023-12-14T07:50:09;4.50;99.90
11569;DHT22;5840;46.894;15.542;2023-12-14T07:52:36;4.50;99.90
11569;DHT22;5840;46.894;15.542;2023-12-14T07:55:04;4.50;99.90
11569;DHT22;5840;46.894;15.542;2023-12-14T07:57:31;4.50;99.90
11569;DHT22;5840;46.894;15.542;2023-12-14T07:59:58;4.60;99.90
11569;DHT22;5840;46.894;15.542;2023-12-14T08:02:25;4.60;99.90
11569;DHT22;5840;46.894;15.542;2023-12-14T08:04:52;4.70;99.90
11569;DHT22;5840;46.894;15.542;2023-12-14T08:07:20;4.70;99.90
11569;DHT22;5840;46.894;15.542;2023-12-14T08:09:47;4.70;99.90
11569;DHT22;5840;46.894;15.542;2023-12-14T08:12:14;4.70;99.90
11569;DHT22;5840;46.894;15.542;2023-12-14T08:14:41;4.70;99.90
11569;DHT22;5840;46.894;15.542;2023-12-14T08:17:09;4.70;99.90
11569;DHT22;5840;46.894;15.542;2023-12-14T08:19:36;4.70;99.90
11569;DHT22;5840;46.894;15.542;2023-12-14T08:22:03;4.70;99.90
11569;DHT22;5840;46.894;15.542;2023-12-14T08:24:32;4.60;99.90
11569;DHT22;5840;46.894;15.542;2023-12-14T08:26:59;4.60;99.90
11569;DHT22;5840;46.894;15.542;2023-12-14T08:29:25;4.60;99.90
11569;DHT22;5840;46.894;15.542;2023-12-14T08:31:52;4.60;99.90
11569;DHT22;5840;46.894;15.542;2023-12-14T08:34:22;4.60;99.90
11569;DHT22;5840;46.894;15.542;2023-12-14T08:36:49;4.70;99.90
11569;DHT22;5840;46.894;15.542;2023-12-14T08:39:16;4.70;99.90
11569;DHT22;5840;46.894;15.542;2023-12-14T08:41:45;4.70;99.90
11569;DHT22;5840;46.894;15.542;2023-12-14T08:44:12;4.80;99.90
11569;DHT22;5840;46.894;15.542;2023-12-14T08:46:40;4.80;99.90
11569;DHT22;5840;46.894;15.542;2023-12-14T08:49:07;4.80;99.90
11569;DHT22;5840;46.894;15.542;2023-12-14T08:51:34;4.90;99.90
11569;DHT22;5840;46.894;15.542;2023-12-14T08:54:01;4.90;99.90
11569;DHT22;5840;46.894;15.542;2023-12-14T08:56:28;4.90;99.90
11569;DHT22;5840;46.894;15.542;2023-12-14T08:58:56;5.00;99.90
11569;DHT22;5840;46.894;15.542;2023-12-14T09:01:24;5.00;99.90
11569;DHT22;5840;46.894;15.542;2023-12-14T09:03:51;5.00;99.90
11569;DHT22;5840;46.894;15.542;2023-12-14T09:06:18;5.00;99.90
11569;DHT22;5840;46.894;15.542;2023-12-14T09:08:46;5.00;99.90
11569;DHT22;5840;46.894;15.542;2023-12-14T09:11:13;5.10;99.90
11569;DHT22;5840;46.894;15.542;2023-12-14T09:13:40;5.10;99.90
11569;DHT22;5840;46.894;15.542;2023-12-14T09:16:09;5.20;99.90
11569;DHT22;5840;46.894;15.542;2023-12-14T09:18:36;5.40;99.90
11569;DHT22;5840;46.894;15.542;2023-12-14T09:21:03;5.50;99.90
11569;DHT22;5840;46.894;15.542;2023-12-14T09:23:31;5.70;99.90
11569;DHT22;5840;46.894;15.542;2023-12-14T09:25:58;5.80;99.90
11569;DHT22;5840;46.894;15.542;2023-12-14T09:28:25;5.90;99.90
11569;DHT22;5840;46.894;15.542;2023-12-14T09:30:52;5.90;99.90
11569;DHT22;5840;46.894;15.542;2023-12-14T09:33:20;6.00;99.90
11569;DHT22;5840;46.894;15.542;2023-12-14T09:35:47;6.10;99.90
11569;DHT22;5840;46.894;15.542;2023-12-14T09:38:14;6.20;99.90
11569;DHT22;5840;46.894;15.542;2023-12-14T09:40:43;6.20;99.90
11569;DHT22;5840;46.894;15.542;2023-12-14T09:43:10;6.30;99.90
11569;DHT22;5840;46.894;15.542;2023-12-14T09:45:38;6.50;99.90
11569;DHT22;5840;46.894;15.542;2023-12-14T09:48:10;6.60;99.90
11569;DHT22;5840;46.894;15.542;2023-12-14T09:50:40;7.00;99.90
11569;DHT22;5840;46.894;15.542;2023-12-14T09:53:08;7.50;99.90
11569;DHT22;5840;46.894;15.542;2023-12-14T09:55:35;8.00;99.90
11569;DHT22;5840;46.894;15.542;2023-12-14T09:58:02;8.40;99.90
11569;DHT22;5840;46.894;15.542;2023-12-14T10:00:36;8.70;99.90
11569;DHT22;5840;46.894;15.542;2023-12-14T10:03:18;8.90;99.90
11569;DHT22;5840;46.894;15.542;2023-12-14T10:05:46;9.10;99.90
11569;DHT22;5840;46.894;15.542;2023-12-14T10:08:14;9.10;99.90
11569;DHT22;5840;46.894;15.542;2023-12-14T10:10:41;9.10;99.90
11569;DHT22;5840;46.894;15.542;2023-12-14T10:13:08;8.90;99.90
11569;DHT22;5840;46.894;15.542;2023-12-14T10:15:42;8.90;99.90
11569;DHT22;5840;46.894;15.542;2023-12-14T10:18:09;8.70;99.90
11569;DHT22;5840;46.894;15.542;2023-12-14T10:20:36;8.60;99.90
11569;DHT22;5840;46.894;15.542;2023-12-14T10:23:06;8.50;99.90
11569;DHT22;5840;46.894;15.542;2023-12-14T10:25:35;8.40;99.90
11569;DHT22;5840;46.894;15.542;2023-12-14T10:28:02;8.40;99.90
11569;DHT22;5840;46.894;15.542;2023-12-14T10:30:29;8.40;99.90
11569;DHT22;5840;46.894;15.542;2023-12-14T10:32:57;8.40;99.90
11569;DHT22;5840;46.894;15.542;2023-12-14T10:35:24;8.40;99.90
11569;DHT22;5840;46.894;15.542;2023-12-14T10:37:51;8.30;99.90
11569;DHT22;5840;46.894;15.542;2023-12-14T10:40:21;8.30;99.90
11569;DHT22;5840;46.894;15.542;2023-12-14T10:42:50;8.30;99.90
11569;DHT22;5840;46.894;15.542;2023-12-14T10:45:18;8.30;99.90
11569;DHT22;5840;46.894;15.542;2023-12-14T10:47:46;8.30;99.90
11569;DHT22;5840;46.894;15.542;2023-12-14T10:50:14;8.30;99.90
11569;DHT22;5840;46.894;15.542;2023-12-14T10:52:42;8.30;99.90
11569;DHT22;5840;46.894;15.542;2023-12-14T10:55:15;8.30;99.90
11569;DHT22;5840;46.894;15.542;2023-12-14T10:57:47;8.40;99.90
11569;DHT22;5840;46.894;15.542;2023-12-14T11:00:16;8.40;99.90
11569;DHT22;5840;46.894;15.542;2023-12-14T11:02:46;8.50;99.90
11569;DHT22;5840;46.894;15.542;2023-12-14T11:05:14;8.50;99.90
11569;DHT22;5840;46.894;15.542;2023-12-14T11:07:46;8.50;99.90
11569;DHT22;5840;46.894;15.542;2023-12-14T11:10:14;8.60;99.90
11569;DHT22;5840;46.894;15.542;2023-12-14T11:12:56;8.70;99.90
11569;DHT22;5840;46.894;15.542;2023-12-14T11:15:24;8.70;99.90
11569;DHT22;5840;46.894;15.542;2023-12-14T11:18:19;8.80;99.90
11569;DHT22;5840;46.894;15.542;2023-12-14T11:20:51;8.90;99.90
11569;DHT22;5840;46.894;15.542;2023-12-14T11:23:27;8.90;99.90
11569;DHT22;5840;46.894;15.542;2023-12-14T11:25:57;8.90;99.90
11569;DHT22;5840;46.894;15.542;2023-12-14T11:28:26;8.90;99.90
11569;DHT22;5840;46.894;15.542;2023-12-14T11:30:54;8.80;99.90
11569;DHT22;5840;46.894;15.542;2023-12-14T11:33:22;8.80;99.90
11569;DHT22;5840;46.894;15.542;2023-12-14T11:35:50;8.70;99.90
11569;DHT22;5840;46.894;15.542;2023-12-14T11:38:18;8.70;99.90
11569;DHT22;5840;46.894;15.542;2023-12-14T11:40:47;8.70;99.90
11569;DHT22;5840;46.894;15.542;2023-12-14T11:43:14;8.80;99.90
11569;DHT22;5840;46.894;15.542;2023-12-14T11:45:43;8.80;99.90
11569;DHT22;5840;46.894;15.542;2023-12-14T11:48:10;8.80;99.90
11569;DHT22;5840;46.894;15.542;2023-12-14T11:50:38;8.70;99.90
11569;DHT22;5840;46.894;15.542;2023-12-14T11:53:06;8.70;99.90
11569;DHT22;5840;46.894;15.542;2023-12-14T11:55:34;8.60;99.90
11569;DHT22;5840;46.894;15.542;2023-12-14T11:58:03;8.40;99.90
11569;DHT22;5840;46.894;15.542;2023-12-14T12:00:31;8.40;99.90
11569;DHT22;5840;46.894;15.542;2023-12-14T12:03:09;8.30;99.90
11569;DHT22;5840;46.894;15.542;2023-12-14T12:05:38;8.20;99.90
11569;DHT22;5840;46.894;15.542;2023-12-14T12:08:06;8.20;99.90
11569;DHT22;5840;46.894;15.542;2023-12-14T12:10:33;8.20;99.90
11569;DHT22;5840;46.894;15.542;2023-12-14T12:13:02;8.20;99.90
11569;DHT22;5840;46.894;15.542;2023-12-14T12:15:31;8.20;99.90
11569;DHT22;5840;46.894;15.542;2023-12-14T12:17:58;8.20;99.90
11569;DHT22;5840;46.894;15.542;2023-12-14T12:20:27;8.20;99.90
11569;DHT22;5840;46.894;15.542;2023-12-14T12:22:54;8.20;99.90
11569;DHT22;5840;46.894;15.542;2023-12-14T12:25:21;8.20;99.90
11569;DHT22;5840;46.894;15.542;2023-12-14T12:27:48;8.20;99.90
11569;DHT22;5840;46.894;15.542;2023-12-14T12:30:15;8.20;99.90
11569;DHT22;5840;46.894;15.542;2023-12-14T12:32:42;8.20;99.90
11569;DHT22;5840;46.894;15.542;2023-12-14T12:35:10;8.20;99.90
11569;DHT22;5840;46.894;15.542;2023-12-14T12:37:38;8.30;99.90
11569;DHT22;5840;46.894;15.542;2023-12-14T12:40:06;8.30;99.90
11569;DHT22;5840;46.894;15.542;2023-12-14T12:42:34;8.40;99.90
11569;DHT22;5840;46.894;15.542;2023-12-14T12:45:01;8.30;99.90
11569;DHT22;5840;46.894;15.542;2023-12-14T12:47:27;8.30;99.90
11569;DHT22;5840;46.894;15.542;2023-12-14T12:49:54;8.30;99.90
11569;DHT22;5840;46.894;15.542;2023-12-14T12:52:21;8.30;99.90
11569;DHT22;5840;46.894;15.542;2023-12-14T12:54:50;8.20;99.90
11569;DHT22;5840;46.894;15.542;2023-12-14T12:57:17;8.20;99.90
11569;DHT22;5840;46.894;15.542;2023-12-14T12:59:44;8.20;99.90
11569;DHT22;5840;46.894;15.542;2023-12-14T13:02:11;8.20;99.90
11569;DHT22;5840;46.894;15.542;2023-12-14T13:04:38;8.20;99.90
11569;DHT22;5840;46.894;15.542;2023-12-14T13:07:05;8.30;99.90
11569;DHT22;5840;46.894;15.542;2023-12-14T13:09:32;8.30;99.90
11569;DHT22;5840;46.894;15.542;2023-12-14T13:12:00;8.40;99.90
11569;DHT22;5840;46.894;15.542;2023-12-14T13:14:27;8.50;99.90
11569;DHT22;5840;46.894;15.542;2023-12-14T13:16:54;8.60;99.90
11569;DHT22;5840;46.894;15.542;2023-12-14T13:19:21;8.70;99.90
11569;DHT22;5840;46.894;15.542;2023-12-14T13:21:48;8.80;99.90
11569;DHT22;5840;46.894;15.542;2023-12-14T13:24:15;8.80;99.90
11569;DHT22;5840;46.894;15.542;2023-12-14T13:26:42;8.80;99.90
11569;DHT22;5840;46.894;15.542;2023-12-14T13:29:11;8.80;99.90
11569;DHT22;5840;46.894;15.542;2023-12-14T13:31:38;8.70;99.90
11569;DHT22;5840;46.894;15.542;2023-12-14T13:34:05;8.60;99.90
11569;DHT22;5840;46.894;15.542;2023-12-14T13:36:32;8.50;99.90
11569;DHT22;5840;46.894;15.542;2023-12-14T13:38:59;8.50;99.90
11569;DHT22;5840;46.894;15.542;2023-12-14T13:41:28;8.40;99.90
11569;DHT22;5840;46.894;15.542;2023-12-14T13:43:59;8.40;99.90
11569;DHT22;5840;46.894;15.542;2023-12-14T13:46:27;8.30;99.90
11569;DHT22;5840;46.894;15.542;2023-12-14T13:48:54;8.30;99.90
11569;DHT22;5840;46.894;15.542;2023-12-14T13:51:21;8.30;99.90
11569;DHT22;5840;46.894;15.542;2023-12-14T13:53:48;8.10;99.90
11569;DHT22;5840;46.894;15.542;2023-12-14T13:56:15;8.10;99.90
11569;DHT22;5840;46.894;15.542;2023-12-14T13:58:42;8.00;99.90
11569;DHT22;5840;46.894;15.542;2023-12-14T14:01:09;8.00;99.90
11569;DHT22;5840;46.894;15.542;2023-12-14T14:03:37;7.90;99.90
11569;DHT22;5840;46.894;15.542;2023-12-14T14:06:05;7.90;99.90
11569;DHT22;5840;46.894;15.542;2023-12-14T14:08:32;7.90;99.90
11569;DHT22;5840;46.894;15.542;2023-12-14T14:10:59;7.90;99.90
11569;DHT22;5840;46.894;15.542;2023-12-14T14:13:27;7.80;99.90
11569;DHT22;5840;46.894;15.542;2023-12-14T14:15:54;7.90;99.90
11569;DHT22;5840;46.894;15.542;2023-12-14T14:18:21;7.80;99.90
11569;DHT22;5840;46.894;15.542;2023-12-14T14:20:50;7.80;99.90
11569;DHT22;5840;46.894;15.542;2023-12-14T14:23:16;7.80;99.90
11569;DHT22;5840;46.894;15.542;2023-12-14T14:25:43;7.70;99.90
11569;DHT22;5840;46.894;15.542;2023-12-14T14:28:10;7.70;99.90
11569;DHT22;5840;46.894;15.542;2023-12-14T14:30:38;7.60;99.90
11569;DHT22;5840;46.894;15.542;2023-12-14T14:33:05;7.60;99.90
11569;DHT22;5840;46.894;15.542;2023-12-14T14:35:32;7.50;99.90
11569;DHT22;5840;46.894;15.542;2023-12-14T14:38:04;7.50;99.90
11569;DHT22;5840;46.894;15.542;2023-12-14T14:40:32;7.50;99.90
11569;DHT22;5840;46.894;15.542;2023-12-14T14:42:58;7.50;99.90
11569;DHT22;5840;46.894;15.542;2023-12-14T14:45:25;7.40;99.90
11569;DHT22;5840;46.894;15.542;2023-12-14T14:47:53;7.40;99.90
11569;DHT22;5840;46.894;15.542;2023-12-14T14:50:20;7.30;99.90
11569;DHT22;5840;46.894;15.542;2023-12-14T14:52:47;7.40;99.90
11569;DHT22;5840;46.894;15.542;2023-12-14T14:55:16;7.50;99.90
11569;DHT22;5840;46.894;15.542;2023-12-14T14:57:43;7.60;99.90
11569;DHT22;5840;46.894;15.542;2023-12-14T15:00:10;7.60;99.90
11569;DHT22;5840;46.894;15.542;2023-12-14T15:02:37;7.50;99.90
11569;DHT22;5840;46.894;15.542;2023-12-14T15:05:04;7.40;99.90
11569;DHT22;5840;46.894;15.542;2023-12-14T15:07:32;7.40;99.90
11569;DHT22;5840;46.894;15.542;2023-12-14T15:09:58;7.30;99.90
11569;DHT22;5840;46.894;15.542;2023-12-14T15:12:27;7.20;99.90
11569;DHT22;5840;46.894;15.542;2023-12-14T15:14:54;7.10;99.90
11569;DHT22;5840;46.894;15.542;2023-12-14T15:17:21;7.10;99.90
11569;DHT22;5840;46.894;15.542;2023-12-14T15:19:48;7.00;99.90
11569;DHT22;5840;46.894;15.542;2023-12-14T15:22:15;7.00;99.90
11569;DHT22;5840;46.894;15.542;2023-12-14T15:24:42;7.00;99.90
11569;DHT22;5840;46.894;15.542;2023-12-14T15:27:09;7.00;99.90
11569;DHT22;5840;46.894;15.542;2023-12-14T15:29:37;6.90;99.90
11569;DHT22;5840;46.894;15.542;2023-12-14T15:32:04;6.90;99.90
11569;DHT22;5840;46.894;15.542;2023-12-14T15:34:31;6.80;99.90
11569;DHT22;5840;46.894;15.542;2023-12-14T15:36:58;6.80;99.90
11569;DHT22;5840;46.894;15.542;2023-12-14T15:39:25;6.70;99.90
11569;DHT22;5840;46.894;15.542;2023-12-14T15:41:52;6.70;99.90
11569;DHT22;5840;46.894;15.542;2023-12-14T15:44:19;6.60;99.90
11569;DHT22;5840;46.894;15.542;2023-12-14T15:46:47;6.60;99.90